sensor_id;sensor_type;location;lat;lon;timestamp;P1;durP1;ratioP1;P2;durP2;ratioP2
20894;SDS011;10607;42.066;24.742;2023-05-14T00:00:57;8.45;;;4.60;;
20894;SDS011;10607;42.066;24.742;2023-05-14T00:03:22;8.27;;;5.63;;
20894;SDS011;10607;42.066;24.742;2023-05-14T00:05:47;9.52;;;4.97;;
20894;SDS011;10607;42.066;24.742;2023-05-14T00:08:12;11.82;;;4.70;;
20894;SDS011;10607;42.066;24.742;2023-05-14T00:10:38;7.50;;;5.20;;
20894;SDS011;10607;42.066;24.742;2023-05-14T00:13:03;11.35;;;5.18;;
20894;SDS011;10607;42.066;24.742;2023-05-14T00:15:28;7.53;;;5.18;;
20894;SDS011;10607;42.066;24.742;2023-05-14T00:17:53;11.18;;;5.75;;
20894;SDS011;10607;42.066;24.742;2023-05-14T00:20:19;10.32;;;6.35;;
20894;SDS011;10607;42.066;24.742;2023-05-14T00:22:44;9.40;;;5.72;;
20894;SDS011;10607;42.066;24.742;2023-05-14T00:25:09;10.93;;;6.22;;
20894;SDS011;10607;42.066;24.742;2023-05-14T00:27:35;8.80;;;5.80;;
20894;SDS011;10607;42.066;24.742;2023-05-14T00:30:02;9.23;;;6.68;;
20894;SDS011;10607;42.066;24.742;2023-05-14T00:32:28;9.77;;;6.47;;
20894;SDS011;10607;42.066;24.742;2023-05-14T00:34:53;11.00;;;5.75;;
20894;SDS011;10607;42.066;24.742;2023-05-14T00:37:18;12.15;;;6.22;;
20894;SDS011;10607;42.066;24.742;2023-05-14T00:39:43;11.40;;;5.97;;
20894;SDS011;10607;42.066;24.742;2023-05-14T00:42:09;9.35;;;5.45;;
20894;SDS011;10607;42.066;24.742;2023-05-14T00:44:34;8.05;;;5.63;;
20894;SDS011;10607;42.066;24.742;2023-05-14T00:47:00;8.57;;;5.53;;
20894;SDS011;10607;42.066;24.742;2023-05-14T00:49:25;11.27;;;5.43;;
20894;SDS011;10607;42.066;24.742;2023-05-14T00:51:52;11.10;;;5.38;;
20894;SDS011;10607;42.066;24.742;2023-05-14T00:54:18;10.85;;;5.18;;
20894;SDS011;10607;42.066;24.742;2023-05-14T00:56:44;13.32;;;5.15;;
20894;SDS011;10607;42.066;24.742;2023-05-14T00:59:09;8.00;;;4.97;;
20894;SDS011;10607;42.066;24.742;2023-05-14T01:01:35;8.50;;;4.28;;
20894;SDS011;10607;42.066;24.742;2023-05-14T01:04:01;7.13;;;3.95;;
20894;SDS011;10607;42.066;24.742;2023-05-14T01:09:08;7.18;;;4.15;;
20894;SDS011;10607;42.066;24.742;2023-05-14T01:16:43;7.10;;;4.20;;
20894;SDS011;10607;42.066;24.742;2023-05-14T01:19:21;5.65;;;4.20;;
20894;SDS011;10607;42.066;24.742;2023-05-14T01:21:46;9.45;;;3.90;;
20894;SDS011;10607;42.066;24.742;2023-05-14T01:24:11;8.10;;;4.57;;
20894;SDS011;10607;42.066;24.742;2023-05-14T01:26:37;12.18;;;4.25;;
20894;SDS011;10607;42.066;24.742;2023-05-14T01:29:23;8.25;;;3.78;;
20894;SDS011;10607;42.066;24.742;2023-05-14T01:31:48;8.00;;;4.10;;
20894;SDS011;10607;42.066;24.742;2023-05-14T01:34:14;8.82;;;4.22;;
20894;SDS011;10607;42.066;24.742;2023-05-14T01:36:40;9.18;;;4.20;;
20894;SDS011;10607;42.066;24.742;2023-05-14T01:39:06;8.43;;;4.20;;
20894;SDS011;10607;42.066;24.742;2023-05-14T01:41:34;9.02;;;4.80;;
20894;SDS011;10607;42.066;24.742;2023-05-14T01:43:59;11.27;;;4.85;;
20894;SDS011;10607;42.066;24.742;2023-05-14T01:46:24;11.48;;;4.45;;
20894;SDS011;10607;42.066;24.742;2023-05-14T01:48:50;7.68;;;4.50;;
20894;SDS011;10607;42.066;24.742;2023-05-14T01:51:15;7.57;;;4.32;;
20894;SDS011;10607;42.066;24.742;2023-05-14T01:53:40;6.32;;;4.20;;
20894;SDS011;10607;42.066;24.742;2023-05-14T01:56:06;11.90;;;4.35;;
20894;SDS011;10607;42.066;24.742;2023-05-14T01:58:31;7.00;;;4.70;;
20894;SDS011;10607;42.066;24.742;2023-05-14T02:00:56;8.23;;;4.00;;
20894;SDS011;10607;42.066;24.742;2023-05-14T02:03:21;10.35;;;3.90;;
20894;SDS011;10607;42.066;24.742;2023-05-14T02:05:47;7.80;;;4.30;;
20894;SDS011;10607;42.066;24.742;2023-05-14T02:08:12;7.40;;;3.78;;
20894;SDS011;10607;42.066;24.742;2023-05-14T02:10:37;6.82;;;4.03;;
20894;SDS011;10607;42.066;24.742;2023-05-14T02:13:03;7.57;;;3.63;;
20894;SDS011;10607;42.066;24.742;2023-05-14T02:15:28;5.30;;;3.80;;
20894;SDS011;10607;42.066;24.742;2023-05-14T02:17:53;10.95;;;4.25;;
20894;SDS011;10607;42.066;24.742;2023-05-14T02:20:18;5.93;;;4.55;;
20894;SDS011;10607;42.066;24.742;2023-05-14T02:22:44;8.98;;;4.43;;
20894;SDS011;10607;42.066;24.742;2023-05-14T02:25:10;7.65;;;4.82;;
20894;SDS011;10607;42.066;24.742;2023-05-14T02:27:35;5.35;;;4.18;;
20894;SDS011;10607;42.066;24.742;2023-05-14T02:30:01;5.85;;;4.07;;
20894;SDS011;10607;42.066;24.742;2023-05-14T02:32:26;7.85;;;4.00;;
20894;SDS011;10607;42.066;24.742;2023-05-14T02:34:51;9.57;;;4.35;;
20894;SDS011;10607;42.066;24.742;2023-05-14T02:37:17;7.50;;;4.40;;
20894;SDS011;10607;42.066;24.742;2023-05-14T02:39:42;8.90;;;4.75;;
20894;SDS011;10607;42.066;24.742;2023-05-14T02:42:07;7.03;;;4.35;;
20894;SDS011;10607;42.066;24.742;2023-05-14T02:44:33;8.35;;;4.82;;
20894;SDS011;10607;42.066;24.742;2023-05-14T02:46:58;6.63;;;4.60;;
20894;SDS011;10607;42.066;24.742;2023-05-14T02:49:23;5.80;;;4.35;;
20894;SDS011;10607;42.066;24.742;2023-05-14T02:51:48;13.43;;;5.13;;
20894;SDS011;10607;42.066;24.742;2023-05-14T02:54:14;10.27;;;4.68;;
20894;SDS011;10607;42.066;24.742;2023-05-14T02:56:40;8.40;;;4.35;;
20894;SDS011;10607;42.066;24.742;2023-05-14T02:59:06;8.65;;;4.55;;
20894;SDS011;10607;42.066;24.742;2023-05-14T03:01:31;6.40;;;4.13;;
20894;SDS011;10607;42.066;24.742;2023-05-14T03:03:56;6.65;;;4.50;;
20894;SDS011;10607;42.066;24.742;2023-05-14T03:06:22;8.88;;;4.43;;
20894;SDS011;10607;42.066;24.742;2023-05-14T03:08:47;6.75;;;4.32;;
20894;SDS011;10607;42.066;24.742;2023-05-14T03:11:12;9.15;;;4.68;;
20894;SDS011;10607;42.066;24.742;2023-05-14T03:13:38;8.07;;;4.95;;
20894;SDS011;10607;42.066;24.742;2023-05-14T03:16:03;9.10;;;5.10;;
20894;SDS011;10607;42.066;24.742;2023-05-14T03:18:28;8.13;;;4.53;;
20894;SDS011;10607;42.066;24.742;2023-05-14T03:20:54;6.57;;;5.20;;
20894;SDS011;10607;42.066;24.742;2023-05-14T03:23:20;11.20;;;5.80;;
20894;SDS011;10607;42.066;24.742;2023-05-14T03:25:45;6.32;;;4.43;;
20894;SDS011;10607;42.066;24.742;2023-05-14T03:28:10;7.70;;;4.57;;
20894;SDS011;10607;42.066;24.742;2023-05-14T03:30:36;11.90;;;4.95;;
20894;SDS011;10607;42.066;24.742;2023-05-14T03:33:01;8.02;;;5.13;;
20894;SDS011;10607;42.066;24.742;2023-05-14T03:35:26;6.90;;;5.50;;
20894;SDS011;10607;42.066;24.742;2023-05-14T03:37:51;7.47;;;4.70;;
20894;SDS011;10607;42.066;24.742;2023-05-14T03:40:18;16.15;;;5.35;;
20894;SDS011;10607;42.066;24.742;2023-05-14T03:42:43;6.55;;;5.03;;
20894;SDS011;10607;42.066;24.742;2023-05-14T03:45:09;6.78;;;4.95;;
20894;SDS011;10607;42.066;24.742;2023-05-14T03:47:34;9.82;;;5.70;;
20894;SDS011;10607;42.066;24.742;2023-05-14T03:49:59;5.75;;;4.88;;
20894;SDS011;10607;42.066;24.742;2023-05-14T03:52:25;7.55;;;5.03;;
20894;SDS011;10607;42.066;24.742;2023-05-14T03:54:50;9.93;;;5.05;;
20894;SDS011;10607;42.066;24.742;2023-05-14T03:57:15;7.70;;;4.70;;
20894;SDS011;10607;42.066;24.742;2023-05-14T03:59:41;10.05;;;4.85;;
20894;SDS011;10607;42.066;24.742;2023-05-14T04:02:06;5.85;;;4.43;;
20894;SDS011;10607;42.066;24.742;2023-05-14T04:04:31;10.65;;;4.25;;
20894;SDS011;10607;42.066;24.742;2023-05-14T04:06:57;8.52;;;5.00;;
20894;SDS011;10607;42.066;24.742;2023-05-14T04:09:22;8.50;;;4.57;;
20894;SDS011;10607;42.066;24.742;2023-05-14T04:11:47;5.72;;;4.32;;
20894;SDS011;10607;42.066;24.742;2023-05-14T04:14:12;6.30;;;4.43;;
20894;SDS011;10607;42.066;24.742;2023-05-14T04:16:38;6.43;;;4.72;;
20894;SDS011;10607;42.066;24.742;2023-05-14T04:19:03;7.85;;;5.75;;
20894;SDS011;10607;42.066;24.742;2023-05-14T04:21:29;7.70;;;5.00;;
20894;SDS011;10607;42.066;24.742;2023-05-14T04:23:55;7.70;;;5.03;;
20894;SDS011;10607;42.066;24.742;2023-05-14T04:26:20;13.10;;;5.25;;
20894;SDS011;10607;42.066;24.742;2023-05-14T04:28:46;10.70;;;6.22;;
20894;SDS011;10607;42.066;24.742;2023-05-14T04:31:11;6.50;;;5.10;;
20894;SDS011;10607;42.066;24.742;2023-05-14T04:33:36;7.88;;;5.32;;
20894;SDS011;10607;42.066;24.742;2023-05-14T04:36:02;9.65;;;6.20;;
20894;SDS011;10607;42.066;24.742;2023-05-14T04:38:29;12.95;;;6.30;;
20894;SDS011;10607;42.066;24.742;2023-05-14T04:40:55;12.30;;;6.95;;
20894;SDS011;10607;42.066;24.742;2023-05-14T04:43:20;9.07;;;5.90;;
20894;SDS011;10607;42.066;24.742;2023-05-14T04:45:46;11.23;;;6.28;;
20894;SDS011;10607;42.066;24.742;2023-05-14T04:48:11;12.60;;;5.97;;
20894;SDS011;10607;42.066;24.742;2023-05-14T04:50:36;10.52;;;6.47;;
20894;SDS011;10607;42.066;24.742;2023-05-14T04:53:02;16.48;;;6.47;;
20894;SDS011;10607;42.066;24.742;2023-05-14T04:55:27;9.27;;;6.60;;
20894;SDS011;10607;42.066;24.742;2023-05-14T04:57:53;10.57;;;6.15;;
20894;SDS011;10607;42.066;24.742;2023-05-14T05:00:18;10.73;;;5.57;;
20894;SDS011;10607;42.066;24.742;2023-05-14T05:02:45;10.63;;;6.40;;
20894;SDS011;10607;42.066;24.742;2023-05-14T05:05:10;8.73;;;6.03;;
20894;SDS011;10607;42.066;24.742;2023-05-14T05:07:36;11.65;;;6.10;;
20894;SDS011;10607;42.066;24.742;2023-05-14T05:10:01;8.55;;;5.70;;
20894;SDS011;10607;42.066;24.742;2023-05-14T05:12:26;10.20;;;5.55;;
20894;SDS011;10607;42.066;24.742;2023-05-14T05:14:54;10.85;;;6.20;;
20894;SDS011;10607;42.066;24.742;2023-05-14T05:17:20;15.60;;;6.03;;
20894;SDS011;10607;42.066;24.742;2023-05-14T05:19:45;10.00;;;5.65;;
20894;SDS011;10607;42.066;24.742;2023-05-14T05:22:11;10.07;;;5.97;;
20894;SDS011;10607;42.066;24.742;2023-05-14T05:24:36;11.05;;;5.35;;
20894;SDS011;10607;42.066;24.742;2023-05-14T05:27:01;13.82;;;8.10;;
20894;SDS011;10607;42.066;24.742;2023-05-14T05:29:26;8.35;;;5.68;;
20894;SDS011;10607;42.066;24.742;2023-05-14T05:31:52;7.93;;;5.20;;
20894;SDS011;10607;42.066;24.742;2023-05-14T05:34:17;16.95;;;5.85;;
20894;SDS011;10607;42.066;24.742;2023-05-14T05:36:43;8.82;;;5.75;;
20894;SDS011;10607;42.066;24.742;2023-05-14T05:39:08;9.68;;;5.80;;
20894;SDS011;10607;42.066;24.742;2023-05-14T05:41:34;10.82;;;5.85;;
20894;SDS011;10607;42.066;24.742;2023-05-14T05:43:59;12.05;;;5.95;;
20894;SDS011;10607;42.066;24.742;2023-05-14T05:46:24;12.95;;;6.90;;
20894;SDS011;10607;42.066;24.742;2023-05-14T05:48:49;10.77;;;5.47;;
20894;SDS011;10607;42.066;24.742;2023-05-14T05:51:15;8.48;;;6.25;;
20894;SDS011;10607;42.066;24.742;2023-05-14T05:53:40;11.48;;;6.45;;
20894;SDS011;10607;42.066;24.742;2023-05-14T05:56:05;10.07;;;6.22;;
20894;SDS011;10607;42.066;24.742;2023-05-14T05:58:31;9.60;;;6.18;;
20894;SDS011;10607;42.066;24.742;2023-05-14T06:00:56;10.40;;;6.38;;
20894;SDS011;10607;42.066;24.742;2023-05-14T06:03:22;10.27;;;5.53;;
20894;SDS011;10607;42.066;24.742;2023-05-14T06:05:47;12.10;;;6.15;;
20894;SDS011;10607;42.066;24.742;2023-05-14T06:08:12;10.30;;;6.15;;
20894;SDS011;10607;42.066;24.742;2023-05-14T06:10:38;14.07;;;5.95;;
20894;SDS011;10607;42.066;24.742;2023-05-14T06:13:03;7.75;;;6.32;;
20894;SDS011;10607;42.066;24.742;2023-05-14T06:15:28;10.32;;;6.43;;
20894;SDS011;10607;42.066;24.742;2023-05-14T06:17:54;9.00;;;5.60;;
20894;SDS011;10607;42.066;24.742;2023-05-14T06:20:19;12.13;;;5.90;;
20894;SDS011;10607;42.066;24.742;2023-05-14T06:22:45;8.60;;;5.93;;
20894;SDS011;10607;42.066;24.742;2023-05-14T06:25:10;7.95;;;5.30;;
20894;SDS011;10607;42.066;24.742;2023-05-14T06:27:35;10.32;;;6.05;;
20894;SDS011;10607;42.066;24.742;2023-05-14T06:30:00;14.82;;;5.57;;
20894;SDS011;10607;42.066;24.742;2023-05-14T06:32:26;8.80;;;5.97;;
20894;SDS011;10607;42.066;24.742;2023-05-14T06:34:51;11.77;;;6.15;;
20894;SDS011;10607;42.066;24.742;2023-05-14T06:37:16;13.82;;;6.45;;
20894;SDS011;10607;42.066;24.742;2023-05-14T06:39:42;8.68;;;6.78;;
20894;SDS011;10607;42.066;24.742;2023-05-14T06:42:13;10.02;;;6.72;;
20894;SDS011;10607;42.066;24.742;2023-05-14T06:44:39;12.50;;;6.78;;
20894;SDS011;10607;42.066;24.742;2023-05-14T06:47:05;15.45;;;8.52;;
20894;SDS011;10607;42.066;24.742;2023-05-14T06:49:32;16.67;;;8.20;;
20894;SDS011;10607;42.066;24.742;2023-05-14T06:51:58;12.80;;;8.63;;
20894;SDS011;10607;42.066;24.742;2023-05-14T06:54:23;14.00;;;8.60;;
20894;SDS011;10607;42.066;24.742;2023-05-14T06:56:49;12.30;;;8.48;;
20894;SDS011;10607;42.066;24.742;2023-05-14T06:59:14;16.45;;;9.25;;
20894;SDS011;10607;42.066;24.742;2023-05-14T07:01:40;13.57;;;9.77;;
20894;SDS011;10607;42.066;24.742;2023-05-14T07:04:05;16.60;;;9.65;;
20894;SDS011;10607;42.066;24.742;2023-05-14T07:06:30;14.25;;;10.50;;
20894;SDS011;10607;42.066;24.742;2023-05-14T07:08:56;15.00;;;9.60;;
20894;SDS011;10607;42.066;24.742;2023-05-14T07:11:21;12.55;;;9.00;;
20894;SDS011;10607;42.066;24.742;2023-05-14T07:13:47;12.48;;;9.43;;
20894;SDS011;10607;42.066;24.742;2023-05-14T07:16:12;13.20;;;9.55;;
20894;SDS011;10607;42.066;24.742;2023-05-14T07:18:37;15.63;;;10.23;;
20894;SDS011;10607;42.066;24.742;2023-05-14T07:21:03;15.13;;;10.45;;
20894;SDS011;10607;42.066;24.742;2023-05-14T07:23:31;15.80;;;10.40;;
20894;SDS011;10607;42.066;24.742;2023-05-14T07:25:57;15.98;;;10.65;;
20894;SDS011;10607;42.066;24.742;2023-05-14T07:28:22;14.80;;;10.98;;
20894;SDS011;10607;42.066;24.742;2023-05-14T07:30:48;18.55;;;10.98;;
20894;SDS011;10607;42.066;24.742;2023-05-14T07:33:13;19.00;;;11.55;;
20894;SDS011;10607;42.066;24.742;2023-05-14T07:35:38;14.35;;;10.48;;
20894;SDS011;10607;42.066;24.742;2023-05-14T07:38:03;16.02;;;10.90;;
20894;SDS011;10607;42.066;24.742;2023-05-14T07:40:30;12.43;;;10.45;;
20894;SDS011;10607;42.066;24.742;2023-05-14T07:42:55;15.85;;;10.40;;
20894;SDS011;10607;42.066;24.742;2023-05-14T07:45:21;16.45;;;12.20;;
20894;SDS011;10607;42.066;24.742;2023-05-14T07:47:46;16.17;;;11.10;;
20894;SDS011;10607;42.066;24.742;2023-05-14T07:50:15;13.20;;;10.68;;
20894;SDS011;10607;42.066;24.742;2023-05-14T07:52:41;15.05;;;11.10;;
20894;SDS011;10607;42.066;24.742;2023-05-14T07:55:06;18.42;;;12.27;;
20894;SDS011;10607;42.066;24.742;2023-05-14T07:57:32;21.63;;;12.93;;
20894;SDS011;10607;42.066;24.742;2023-05-14T07:59:57;15.27;;;11.45;;
20894;SDS011;10607;42.066;24.742;2023-05-14T08:02:23;22.80;;;12.10;;
20894;SDS011;10607;42.066;24.742;2023-05-14T08:04:48;18.30;;;10.30;;
20894;SDS011;10607;42.066;24.742;2023-05-14T08:07:13;18.02;;;10.35;;
20894;SDS011;10607;42.066;24.742;2023-05-14T08:09:38;17.15;;;11.60;;
20894;SDS011;10607;42.066;24.742;2023-05-14T08:12:04;18.98;;;11.07;;
20894;SDS011;10607;42.066;24.742;2023-05-14T08:14:30;17.15;;;11.27;;
20894;SDS011;10607;42.066;24.742;2023-05-14T08:16:55;19.10;;;11.95;;
20894;SDS011;10607;42.066;24.742;2023-05-14T08:19:21;20.48;;;11.65;;
20894;SDS011;10607;42.066;24.742;2023-05-14T08:21:46;14.55;;;10.98;;
20894;SDS011;10607;42.066;24.742;2023-05-14T08:24:11;19.75;;;11.45;;
20894;SDS011;10607;42.066;24.742;2023-05-14T08:26:37;15.85;;;10.93;;
20894;SDS011;10607;42.066;24.742;2023-05-14T08:29:05;18.67;;;10.35;;
20894;SDS011;10607;42.066;24.742;2023-05-14T08:31:31;15.23;;;12.02;;
20894;SDS011;10607;42.066;24.742;2023-05-14T08:33:56;17.13;;;13.10;;
20894;SDS011;10607;42.066;24.742;2023-05-14T08:36:21;18.58;;;12.82;;
20894;SDS011;10607;42.066;24.742;2023-05-14T08:38:47;17.60;;;12.43;;
20894;SDS011;10607;42.066;24.742;2023-05-14T08:41:14;24.08;;;14.68;;
20894;SDS011;10607;42.066;24.742;2023-05-14T08:43:43;22.30;;;16.80;;
20894;SDS011;10607;42.066;24.742;2023-05-14T08:46:10;29.38;;;15.45;;
20894;SDS011;10607;42.066;24.742;2023-05-14T08:48:37;18.30;;;13.75;;
20894;SDS011;10607;42.066;24.742;2023-05-14T08:51:04;17.60;;;13.23;;
20894;SDS011;10607;42.066;24.742;2023-05-14T08:53:30;16.13;;;12.90;;
20894;SDS011;10607;42.066;24.742;2023-05-14T08:55:56;16.58;;;11.88;;
20894;SDS011;10607;42.066;24.742;2023-05-14T08:58:21;13.40;;;11.30;;
20894;SDS011;10607;42.066;24.742;2023-05-14T09:00:46;18.42;;;11.23;;
20894;SDS011;10607;42.066;24.742;2023-05-14T09:03:12;18.92;;;12.35;;
20894;SDS011;10607;42.066;24.742;2023-05-14T09:05:38;14.43;;;11.45;;
20894;SDS011;10607;42.066;24.742;2023-05-14T09:08:05;15.95;;;12.20;;
20894;SDS011;10607;42.066;24.742;2023-05-14T09:10:30;16.63;;;13.10;;
20894;SDS011;10607;42.066;24.742;2023-05-14T09:12:56;19.13;;;12.35;;
20894;SDS011;10607;42.066;24.742;2023-05-14T09:15:22;21.05;;;11.95;;
20894;SDS011;10607;42.066;24.742;2023-05-14T09:17:47;15.55;;;11.57;;
20894;SDS011;10607;42.066;24.742;2023-05-14T09:20:13;17.42;;;12.40;;
20894;SDS011;10607;42.066;24.742;2023-05-14T09:22:38;18.67;;;12.25;;
20894;SDS011;10607;42.066;24.742;2023-05-14T09:25:07;16.05;;;12.05;;
20894;SDS011;10607;42.066;24.742;2023-05-14T09:27:36;14.80;;;12.32;;
20894;SDS011;10607;42.066;24.742;2023-05-14T09:30:05;13.52;;;10.48;;
20894;SDS011;10607;42.066;24.742;2023-05-14T09:32:34;12.70;;;10.82;;
20894;SDS011;10607;42.066;24.742;2023-05-14T09:35:07;13.30;;;10.80;;
20894;SDS011;10607;42.066;24.742;2023-05-14T09:37:34;13.15;;;10.57;;
20894;SDS011;10607;42.066;24.742;2023-05-14T09:40:04;17.20;;;10.55;;
20894;SDS011;10607;42.066;24.742;2023-05-14T09:42:29;22.55;;;11.48;;
20894;SDS011;10607;42.066;24.742;2023-05-14T09:44:55;20.27;;;11.63;;
20894;SDS011;10607;42.066;24.742;2023-05-14T09:47:20;15.50;;;11.45;;
20894;SDS011;10607;42.066;24.742;2023-05-14T09:49:47;19.42;;;12.07;;
20894;SDS011;10607;42.066;24.742;2023-05-14T09:52:12;17.20;;;12.40;;
20894;SDS011;10607;42.066;24.742;2023-05-14T09:54:37;15.40;;;11.43;;
20894;SDS011;10607;42.066;24.742;2023-05-14T09:57:04;16.83;;;11.20;;
20894;SDS011;10607;42.066;24.742;2023-05-14T09:59:29;14.88;;;11.57;;
20894;SDS011;10607;42.066;24.742;2023-05-14T10:01:54;18.08;;;11.77;;
20894;SDS011;10607;42.066;24.742;2023-05-14T10:04:20;15.30;;;13.10;;
20894;SDS011;10607;42.066;24.742;2023-05-14T10:06:46;13.95;;;11.95;;
20894;SDS011;10607;42.066;24.742;2023-05-14T10:09:13;16.52;;;11.98;;
20894;SDS011;10607;42.066;24.742;2023-05-14T10:11:43;17.30;;;12.98;;
20894;SDS011;10607;42.066;24.742;2023-05-14T10:14:18;20.73;;;14.05;;
20894;SDS011;10607;42.066;24.742;2023-05-14T10:16:48;17.50;;;13.10;;
20894;SDS011;10607;42.066;24.742;2023-05-14T10:19:14;15.13;;;12.90;;
20894;SDS011;10607;42.066;24.742;2023-05-14T10:21:40;16.75;;;13.73;;
20894;SDS011;10607;42.066;24.742;2023-05-14T10:24:08;17.17;;;13.30;;
20894;SDS011;10607;42.066;24.742;2023-05-14T10:26:35;17.65;;;13.93;;
20894;SDS011;10607;42.066;24.742;2023-05-14T10:29:08;21.45;;;15.30;;
20894;SDS011;10607;42.066;24.742;2023-05-14T10:31:52;19.20;;;14.30;;
20894;SDS011;10607;42.066;24.742;2023-05-14T10:37:09;25.75;;;16.33;;
20894;SDS011;10607;42.066;24.742;2023-05-14T10:40:20;22.33;;;14.15;;
20894;SDS011;10607;42.066;24.742;2023-05-14T10:45:07;15.75;;;13.10;;
20894;SDS011;10607;42.066;24.742;2023-05-14T10:47:37;18.63;;;12.85;;
20894;SDS011;10607;42.066;24.742;2023-05-14T10:50:03;15.32;;;13.00;;
20894;SDS011;10607;42.066;24.742;2023-05-14T10:52:30;18.98;;;12.93;;
20894;SDS011;10607;42.066;24.742;2023-05-14T10:54:56;18.20;;;12.88;;
20894;SDS011;10607;42.066;24.742;2023-05-14T10:57:22;15.95;;;12.50;;
20894;SDS011;10607;42.066;24.742;2023-05-14T10:59:48;20.35;;;14.02;;
20894;SDS011;10607;42.066;24.742;2023-05-14T11:02:21;17.83;;;15.27;;
20894;SDS011;10607;42.066;24.742;2023-05-14T11:05:28;20.83;;;15.05;;
20894;SDS011;10607;42.066;24.742;2023-05-14T11:07:36;16.88;;;14.10;;
20894;SDS011;10607;42.066;24.742;2023-05-14T11:12:30;20.55;;;14.52;;
20894;SDS011;10607;42.066;24.742;2023-05-14T11:14:56;18.25;;;14.93;;
20894;SDS011;10607;42.066;24.742;2023-05-14T11:17:23;20.27;;;15.23;;
20894;SDS011;10607;42.066;24.742;2023-05-14T11:19:49;21.98;;;15.05;;
20894;SDS011;10607;42.066;24.742;2023-05-14T11:22:14;20.92;;;15.45;;
20894;SDS011;10607;42.066;24.742;2023-05-14T11:24:39;18.65;;;15.15;;
20894;SDS011;10607;42.066;24.742;2023-05-14T11:27:08;20.33;;;15.23;;
20894;SDS011;10607;42.066;24.742;2023-05-14T11:29:37;22.92;;;16.25;;
20894;SDS011;10607;42.066;24.742;2023-05-14T11:32:03;18.17;;;15.13;;
20894;SDS011;10607;42.066;24.742;2023-05-14T11:34:29;19.60;;;15.02;;
20894;SDS011;10607;42.066;24.742;2023-05-14T11:36:54;19.85;;;14.63;;
20894;SDS011;10607;42.066;24.742;2023-05-14T11:39:20;19.98;;;14.18;;
20894;SDS011;10607;42.066;24.742;2023-05-14T11:41:45;19.70;;;14.68;;
20894;SDS011;10607;42.066;24.742;2023-05-14T11:44:10;20.67;;;15.63;;
20894;SDS011;10607;42.066;24.742;2023-05-14T11:46:36;23.17;;;16.35;;
20894;SDS011;10607;42.066;24.742;2023-05-14T11:49:04;22.25;;;16.75;;
20894;SDS011;10607;42.066;24.742;2023-05-14T11:51:29;21.10;;;16.70;;
20894;SDS011;10607;42.066;24.742;2023-05-14T11:53:55;22.25;;;16.23;;
20894;SDS011;10607;42.066;24.742;2023-05-14T11:56:22;32.80;;;17.45;;
20894;SDS011;10607;42.066;24.742;2023-05-14T11:58:48;26.60;;;19.88;;
20894;SDS011;10607;42.066;24.742;2023-05-14T12:01:13;26.63;;;20.70;;
20894;SDS011;10607;42.066;24.742;2023-05-14T12:03:39;25.75;;;19.73;;
20894;SDS011;10607;42.066;24.742;2023-05-14T12:06:05;25.45;;;18.75;;
20894;SDS011;10607;42.066;24.742;2023-05-14T12:08:31;25.70;;;19.35;;
20894;SDS011;10607;42.066;24.742;2023-05-14T12:10:57;25.98;;;21.23;;
20894;SDS011;10607;42.066;24.742;2023-05-14T12:13:24;29.20;;;21.23;;
20894;SDS011;10607;42.066;24.742;2023-05-14T12:15:54;31.55;;;21.25;;
20894;SDS011;10607;42.066;24.742;2023-05-14T12:18:20;30.85;;;22.80;;
20894;SDS011;10607;42.066;24.742;2023-05-14T12:20:46;30.42;;;23.65;;
20894;SDS011;10607;42.066;24.742;2023-05-14T12:23:12;36.97;;;22.75;;
20894;SDS011;10607;42.066;24.742;2023-05-14T12:25:37;34.63;;;25.60;;
20894;SDS011;10607;42.066;24.742;2023-05-14T12:28:12;36.13;;;24.92;;
20894;SDS011;10607;42.066;24.742;2023-05-14T12:30:37;34.88;;;23.40;;
20894;SDS011;10607;42.066;24.742;2023-05-14T12:33:03;34.75;;;25.60;;
20894;SDS011;10607;42.066;24.742;2023-05-14T12:35:28;38.15;;;25.83;;
20894;SDS011;10607;42.066;24.742;2023-05-14T12:37:54;38.05;;;26.73;;
20894;SDS011;10607;42.066;24.742;2023-05-14T12:40:19;31.67;;;25.70;;
20894;SDS011;10607;42.066;24.742;2023-05-14T12:42:45;32.70;;;24.85;;
20894;SDS011;10607;42.066;24.742;2023-05-14T12:45:10;33.85;;;24.42;;
20894;SDS011;10607;42.066;24.742;2023-05-14T12:47:35;34.53;;;24.25;;
20894;SDS011;10607;42.066;24.742;2023-05-14T12:50:01;24.90;;;19.35;;
20894;SDS011;10607;42.066;24.742;2023-05-14T12:52:26;30.27;;;21.52;;
20894;SDS011;10607;42.066;24.742;2023-05-14T12:54:51;28.15;;;21.70;;
20894;SDS011;10607;42.066;24.742;2023-05-14T12:57:17;30.73;;;22.88;;
20894;SDS011;10607;42.066;24.742;2023-05-14T12:59:42;32.80;;;22.60;;
20894;SDS011;10607;42.066;24.742;2023-05-14T13:02:07;30.23;;;22.17;;
20894;SDS011;10607;42.066;24.742;2023-05-14T13:04:32;32.78;;;23.02;;
20894;SDS011;10607;42.066;24.742;2023-05-14T13:06:58;37.72;;;23.67;;
20894;SDS011;10607;42.066;24.742;2023-05-14T13:09:23;29.58;;;21.60;;
20894;SDS011;10607;42.066;24.742;2023-05-14T13:11:49;34.38;;;20.25;;
20894;SDS011;10607;42.066;24.742;2023-05-14T13:14:14;29.83;;;22.63;;
20894;SDS011;10607;42.066;24.742;2023-05-14T13:16:39;27.48;;;22.75;;
20894;SDS011;10607;42.066;24.742;2023-05-14T13:19:05;31.60;;;21.70;;
20894;SDS011;10607;42.066;24.742;2023-05-14T13:21:30;28.42;;;19.77;;
20894;SDS011;10607;42.066;24.742;2023-05-14T13:23:55;31.20;;;22.08;;
20894;SDS011;10607;42.066;24.742;2023-05-14T13:26:21;27.73;;;20.75;;
20894;SDS011;10607;42.066;24.742;2023-05-14T13:28:46;27.67;;;20.00;;
20894;SDS011;10607;42.066;24.742;2023-05-14T13:31:12;33.20;;;23.10;;
20894;SDS011;10607;42.066;24.742;2023-05-14T13:33:41;28.33;;;21.77;;
20894;SDS011;10607;42.066;24.742;2023-05-14T13:36:07;27.75;;;18.90;;
20894;SDS011;10607;42.066;24.742;2023-05-14T13:38:33;30.65;;;21.52;;
20894;SDS011;10607;42.066;24.742;2023-05-14T13:40:58;30.48;;;21.63;;
20894;SDS011;10607;42.066;24.742;2023-05-14T13:43:32;27.55;;;22.85;;
20894;SDS011;10607;42.066;24.742;2023-05-14T13:45:58;28.52;;;22.15;;
20894;SDS011;10607;42.066;24.742;2023-05-14T13:48:24;32.72;;;23.63;;
20894;SDS011;10607;42.066;24.742;2023-05-14T13:50:49;32.47;;;22.38;;
20894;SDS011;10607;42.066;24.742;2023-05-14T13:53:16;30.65;;;20.55;;
20894;SDS011;10607;42.066;24.742;2023-05-14T13:55:42;30.42;;;21.63;;
20894;SDS011;10607;42.066;24.742;2023-05-14T13:58:07;28.48;;;20.35;;
20894;SDS011;10607;42.066;24.742;2023-05-14T14:00:34;24.80;;;20.55;;
20894;SDS011;10607;42.066;24.742;2023-05-14T14:02:59;26.67;;;20.65;;
20894;SDS011;10607;42.066;24.742;2023-05-14T14:05:25;31.52;;;21.60;;
20894;SDS011;10607;42.066;24.742;2023-05-14T14:07:52;30.33;;;21.20;;
20894;SDS011;10607;42.066;24.742;2023-05-14T14:10:18;28.73;;;22.30;;
20894;SDS011;10607;42.066;24.742;2023-05-14T14:12:43;33.97;;;23.40;;
20894;SDS011;10607;42.066;24.742;2023-05-14T14:15:08;29.95;;;22.25;;
20894;SDS011;10607;42.066;24.742;2023-05-14T14:17:34;28.48;;;21.58;;
20894;SDS011;10607;42.066;24.742;2023-05-14T14:19:59;30.05;;;23.42;;
20894;SDS011;10607;42.066;24.742;2023-05-14T14:22:24;35.70;;;25.52;;
20894;SDS011;10607;42.066;24.742;2023-05-14T14:24:50;33.83;;;24.48;;
20894;SDS011;10607;42.066;24.742;2023-05-14T14:27:15;31.95;;;24.23;;